Time;durP1;ratioP1;P1;durP2;ratioP2;P2;SDS_P1;SDS_P2;PMS_P1;PMS_P2;Temp;Humidity;BMP_temperature;BMP_pressure;BME280_temperature;BME280_humidity;BME280_pressure;Samples;Min_cycle;Max_cycle;Signal;HPM_P1;HPM_P2
2023/04/18 00:00:27;;;;;;;15.23;11.70;;;7.70;99.90;;;;;;4990967;28;20046;-63
2023/04/18 00:02:53;;;;;;;16.98;11.85;;;7.70;99.90;;;;;;4994056;28;20053;-63
2023/04/18 00:05:20;;;;;;;13.48;10.77;;;7.70;99.90;;;;;;4993903;28;20038;-63
2023/04/18 00:07:46;;;;;;;13.65;11.07;;;7.70;99.90;;;;;;5011856;28;20493;-62
2023/04/18 00:10:13;;;;;;;16.02;12.00;;;7.70;99.90;;;;;;5008270;28;20088;-63
2023/04/18 00:12:38;;;;;;;15.63;11.10;;;7.80;99.90;;;;;;4994375;28;20041;-63
2023/04/18 00:15:07;;;;;;;17.60;12.05;;;7.80;99.90;;;;;;5008728;28;20029;-63
2023/04/18 00:17:34;;;;;;;15.85;11.95;;;7.80;99.90;;;;;;4990096;28;20041;-63
2023/04/18 00:20:05;;;;;;;19.25;12.18;;;7.90;99.90;;;;;;5008886;28;20394;-63
2023/04/18 00:22:32;;;;;;;17.92;11.95;;;7.90;99.90;;;;;;4988716;28;20093;-63
2023/04/18 00:24:58;;;;;;;19.55;12.13;;;7.90;99.90;;;;;;5012002;28;20068;-63
2023/04/18 00:27:24;;;;;;;19.52;12.73;;;7.90;99.90;;;;;;5004918;28;20500;-63
2023/04/18 00:29:53;;;;;;;16.77;11.68;;;7.90;99.90;;;;;;5006703;28;20029;-62
2023/04/18 00:32:18;;;;;;;21.08;11.90;;;7.90;99.90;;;;;;5007456;28;20435;-63
2023/04/18 00:34:44;;;;;;;17.98;12.38;;;7.90;99.90;;;;;;5011666;28;20124;-62
2023/04/18 00:37:10;;;;;;;17.40;11.70;;;7.90;99.90;;;;;;5005757;28;20038;-62
2023/04/18 00:39:36;;;;;;;18.42;12.40;;;7.90;99.90;;;;;;5010012;28;20129;-62
2023/04/18 00:42:05;;;;;;;15.75;11.20;;;7.90;99.90;;;;;;5007725;28;20442;-62
2023/04/18 00:44:34;;;;;;;16.92;12.50;;;8.00;99.90;;;;;;5003793;28;20527;-63
2023/04/18 00:46:59;;;;;;;17.10;11.10;;;7.90;99.90;;;;;;4991620;28;20045;-62
2023/04/18 00:49:28;;;;;;;16.90;11.75;;;7.90;99.90;;;;;;4989416;28;20053;-62
2023/04/18 00:51:55;;;;;;;17.65;11.43;;;7.90;99.90;;;;;;5007436;28;20038;-63
2023/04/18 00:54:23;;;;;;;17.90;12.63;;;7.90;99.90;;;;;;5006852;28;20045;-63
2023/04/18 00:56:49;;;;;;;14.80;11.95;;;7.90;99.90;;;;;;5024758;28;20041;-63
2023/04/18 00:59:15;;;;;;;17.75;10.88;;;7.80;99.90;;;;;;4990021;28;20511;-63
2023/04/18 01:01:42;;;;;;;16.95;11.10;;;7.80;99.90;;;;;;5003450;28;20129;-63
2023/04/18 01:04:08;;;;;;;16.67;11.65;;;7.80;99.90;;;;;;4990959;28;20034;-63
2023/04/18 01:06:35;;;;;;;16.08;10.93;;;7.80;99.90;;;;;;4988821;28;20057;-63
2023/04/18 01:09:01;;;;;;;15.13;10.32;;;7.80;99.90;;;;;;5005841;28;20045;-62
2023/04/18 01:11:27;;;;;;;16.83;10.38;;;7.80;99.90;;;;;;4994582;28;20045;-62
2023/04/18 01:14:05;;;;;;;13.30;9.75;;;7.70;99.90;;;;;;5006566;28;20049;-63
2023/04/18 01:16:32;;;;;;;14.02;10.05;;;7.80;99.90;;;;;;5021083;28;20054;-62
2023/04/18 01:19:02;;;;;;;14.95;10.00;;;7.70;99.90;;;;;;5007338;28;20169;-62
2023/04/18 01:21:32;;;;;;;16.65;10.27;;;7.70;99.90;;;;;;4997170;28;20596;-63
2023/04/18 01:24:10;;;;;;;13.80;9.82;;;7.60;99.90;;;;;;5009994;28;20044;-63
2023/04/18 01:26:36;;;;;;;12.60;9.50;;;7.60;99.90;;;;;;5014117;28;20393;-62
2023/04/18 01:29:02;;;;;;;13.43;9.40;;;7.60;99.90;;;;;;5004574;28;20135;-63
2023/04/18 01:31:28;;;;;;;16.23;9.70;;;7.60;99.90;;;;;;5011228;28;20041;-63
2023/04/18 01:33:54;;;;;;;12.77;9.13;;;7.60;99.90;;;;;;5006989;28;20048;-62
2023/04/18 01:36:20;;;;;;;13.85;9.10;;;7.50;99.90;;;;;;5012150;28;20124;-63
2023/04/18 01:38:45;;;;;;;14.05;9.68;;;7.50;99.90;;;;;;5008254;28;20036;-63
2023/04/18 01:41:11;;;;;;;12.77;8.30;;;7.50;99.90;;;;;;5005198;28;20034;-63
2023/04/18 01:43:37;;;;;;;15.05;9.05;;;7.50;99.90;;;;;;5003033;28;20767;-62
2023/04/18 01:46:05;;;;;;;13.07;9.55;;;7.50;99.90;;;;;;5007122;28;20596;-63
2023/04/18 01:48:32;;;;;;;12.00;8.63;;;7.40;99.90;;;;;;5005364;28;20405;-62
2023/04/18 01:50:57;;;;;;;15.00;9.35;;;7.40;99.90;;;;;;5012997;28;20512;-62
2023/04/18 01:53:24;;;;;;;12.20;8.20;;;7.40;99.90;;;;;;5012792;28;20040;-62
2023/04/18 01:55:50;;;;;;;15.45;9.50;;;7.40;99.90;;;;;;4993039;28;20188;-63
2023/04/18 01:58:17;;;;;;;12.50;9.07;;;7.40;99.90;;;;;;5005783;28;20040;-62
2023/04/18 02:00:43;;;;;;;13.63;9.30;;;7.40;99.90;;;;;;5006371;28;20647;-62
2023/04/18 02:03:08;;;;;;;10.40;8.10;;;7.40;99.90;;;;;;4990132;28;20078;-61
2023/04/18 02:05:36;;;;;;;14.48;8.55;;;7.40;99.90;;;;;;5008393;28;20545;-62
2023/04/18 02:08:02;;;;;;;11.57;8.30;;;7.40;99.90;;;;;;5011791;28;20076;-62
2023/04/18 02:10:27;;;;;;;14.88;9.30;;;7.40;99.90;;;;;;5010116;28;20045;-62
2023/04/18 02:12:53;;;;;;;13.95;9.45;;;7.30;99.90;;;;;;5003578;28;20045;-61
2023/04/18 02:15:19;;;;;;;12.15;9.10;;;7.30;99.90;;;;;;4991578;28;20435;-61
2023/04/18 02:17:45;;;;;;;13.57;10.32;;;7.30;99.90;;;;;;5008950;28;20037;-62
2023/04/18 02:20:12;;;;;;;14.90;8.98;;;7.30;99.90;;;;;;4995340;28;20042;-62
2023/04/18 02:22:38;;;;;;;12.82;8.60;;;7.30;99.90;;;;;;4990030;28;20115;-61
2023/04/18 02:25:04;;;;;;;13.73;9.27;;;7.20;99.90;;;;;;5006589;28;20044;-62
2023/04/18 02:27:30;;;;;;;14.18;9.27;;;7.20;99.90;;;;;;4988069;28;20497;-62
2023/04/18 02:29:55;;;;;;;12.15;8.63;;;7.20;99.90;;;;;;5005825;28;20048;-61
2023/04/18 02:32:21;;;;;;;14.38;9.23;;;7.20;99.90;;;;;;5005845;28;20053;-62
2023/04/18 02:34:47;;;;;;;11.77;7.95;;;7.20;99.90;;;;;;5005202;28;20044;-62
2023/04/18 02:37:12;;;;;;;13.77;8.13;;;7.20;99.90;;;;;;5005517;28;20046;-62
2023/04/18 02:39:38;;;;;;;13.57;8.35;;;7.20;99.90;;;;;;5005358;28;20462;-62
2023/04/18 02:42:04;;;;;;;12.25;7.78;;;7.10;99.90;;;;;;5003924;28;20260;-62
2023/04/18 02:44:29;;;;;;;11.45;7.93;;;7.10;99.90;;;;;;4996489;28;20056;-62
2023/04/18 02:46:55;;;;;;;11.18;7.80;;;7.10;99.90;;;;;;5005460;28;20126;-62
2023/04/18 02:49:21;;;;;;;15.02;7.85;;;7.10;99.90;;;;;;5005809;28;20091;-60
2023/04/18 02:51:46;;;;;;;9.18;6.30;;;7.00;99.90;;;;;;5004856;28;20092;-62
2023/04/18 02:54:12;;;;;;;9.68;7.05;;;7.00;99.90;;;;;;5005171;28;20053;-61
2023/04/18 02:56:38;;;;;;;9.48;6.80;;;7.00;99.90;;;;;;5006392;28;20038;-62
2023/04/18 02:59:07;;;;;;;14.32;7.20;;;7.00;99.90;;;;;;5006661;28;20042;-62
2023/04/18 03:01:33;;;;;;;9.25;6.50;;;7.00;99.90;;;;;;5002453;28;20038;-62
2023/04/18 03:03:59;;;;;;;8.50;6.32;;;7.00;99.90;;;;;;5027783;28;20038;-62
2023/04/18 03:06:26;;;;;;;11.15;7.13;;;7.00;99.90;;;;;;5006126;28;20111;-61
2023/04/18 03:08:52;;;;;;;9.90;6.18;;;7.00;99.90;;;;;;4989628;28;20044;-62
2023/04/18 03:11:17;;;;;;;8.73;6.28;;;7.10;99.90;;;;;;5009174;28;20552;-61
2023/04/18 03:13:43;;;;;;;9.25;6.10;;;7.00;99.90;;;;;;4988229;28;20042;-61
2023/04/18 03:16:10;;;;;;;9.23;6.60;;;7.00;99.90;;;;;;5016921;28;20034;-61
2023/04/18 03:18:36;;;;;;;10.23;6.43;;;7.00;99.90;;;;;;5003455;28;20033;-62
2023/04/18 03:21:02;;;;;;;8.95;6.05;;;7.00;99.90;;;;;;4993711;28;20094;-61
2023/04/18 03:23:27;;;;;;;8.52;5.80;;;7.00;99.90;;;;;;5022111;28;20046;-61
2023/04/18 03:25:53;;;;;;;9.73;5.95;;;7.00;99.90;;;;;;5007867;28;20112;-61
2023/04/18 03:28:19;;;;;;;9.65;6.15;;;7.10;99.90;;;;;;5009577;28;20045;-60
2023/04/18 03:30:44;;;;;;;10.27;6.50;;;7.10;99.90;;;;;;4991877;28;20045;-62
2023/04/18 03:33:10;;;;;;;10.73;6.95;;;7.10;99.90;;;;;;5004983;28;20041;-62
2023/04/18 03:35:39;;;;;;;7.53;5.60;;;7.10;99.90;;;;;;5027999;28;20104;-62
2023/04/18 03:38:05;;;;;;;9.43;6.57;;;7.10;99.90;;;;;;5010795;28;20034;-62
2023/04/18 03:40:30;;;;;;;10.23;6.15;;;7.20;99.90;;;;;;5008050;28;20653;-62
2023/04/18 03:42:58;;;;;;;11.15;6.95;;;7.20;99.90;;;;;;5006334;28;20048;-62
2023/04/18 03:45:27;;;;;;;10.32;6.20;;;7.20;99.90;;;;;;5007830;28;20048;-62
2023/04/18 03:47:53;;;;;;;9.85;6.20;;;7.30;99.90;;;;;;4999454;28;20133;-62
2023/04/18 03:50:18;;;;;;;9.23;6.20;;;7.30;99.90;;;;;;5003870;28;20124;-62
2023/04/18 03:52:44;;;;;;;9.60;6.68;;;7.30;99.90;;;;;;5002503;28;20308;-61
2023/04/18 03:55:10;;;;;;;12.38;7.43;;;7.40;99.90;;;;;;4999792;28;20120;-61
2023/04/18 03:57:36;;;;;;;9.73;6.38;;;7.40;99.90;;;;;;5004409;28;20097;-62
2023/04/18 04:00:03;;;;;;;9.45;6.60;;;7.40;99.90;;;;;;5006211;28;20037;-62
2023/04/18 04:02:29;;;;;;;11.55;5.90;;;7.50;99.90;;;;;;4992682;28;20112;-61
2023/04/18 04:04:55;;;;;;;9.43;6.10;;;7.50;99.90;;;;;;5009290;28;20736;-62
2023/04/18 04:07:20;;;;;;;8.82;5.60;;;7.50;99.90;;;;;;5006370;28;20196;-61
2023/04/18 04:09:46;;;;;;;9.02;6.10;;;7.60;99.90;;;;;;5009269;28;20030;-61
2023/04/18 04:12:12;;;;;;;10.15;6.47;;;7.60;99.90;;;;;;5007914;28;20061;-62
2023/04/18 04:14:38;;;;;;;9.35;5.90;;;7.60;99.90;;;;;;5024199;28;20042;-61
2023/04/18 04:17:05;;;;;;;8.38;6.43;;;7.60;99.90;;;;;;5010233;28;20041;-61
2023/04/18 04:19:30;;;;;;;9.88;7.05;;;7.60;99.90;;;;;;5013072;28;20038;-61
2023/04/18 04:21:56;;;;;;;15.35;6.95;;;7.70;99.90;;;;;;5007865;28;20042;-61
2023/04/18 04:24:22;;;;;;;10.32;7.18;;;7.70;99.90;;;;;;4994314;28;20405;-61
2023/04/18 04:26:49;;;;;;;11.15;7.18;;;7.70;99.90;;;;;;5009116;28;20038;-62
2023/04/18 04:29:15;;;;;;;10.52;6.65;;;7.70;99.90;;;;;;5011049;28;20658;-61
2023/04/18 04:31:41;;;;;;;11.05;8.05;;;7.70;99.90;;;;;;4990920;28;20042;-62
2023/04/18 04:34:07;;;;;;;10.40;7.07;;;7.70;99.90;;;;;;5007215;28;20249;-62
2023/04/18 04:36:33;;;;;;;10.80;8.27;;;7.70;99.90;;;;;;4992624;28;20048;-62
2023/04/18 04:39:02;;;;;;;12.73;6.90;;;7.70;99.90;;;;;;5007636;28;20034;-61
2023/04/18 04:41:28;;;;;;;12.63;8.40;;;7.70;99.90;;;;;;5007028;28;20045;-62
2023/04/18 04:43:54;;;;;;;10.68;7.38;;;7.70;99.90;;;;;;5006750;28;20057;-62
2023/04/18 04:46:20;;;;;;;11.68;7.25;;;7.70;99.90;;;;;;5009116;28;20501;-61
2023/04/18 04:48:45;;;;;;;12.93;8.27;;;7.70;99.90;;;;;;5011546;28;20049;-62
2023/04/18 04:51:11;;;;;;;11.95;7.60;;;7.70;99.90;;;;;;5008164;28;20120;-61
2023/04/18 04:53:37;;;;;;;9.90;7.13;;;7.70;99.90;;;;;;5011622;28;20042;-62
2023/04/18 04:56:06;;;;;;;12.63;8.02;;;7.70;99.90;;;;;;5008018;28;20497;-62
2023/04/18 04:58:32;;;;;;;11.57;8.13;;;7.80;99.90;;;;;;4972102;28;20396;-61
2023/04/18 05:00:57;;;;;;;10.32;7.57;;;7.70;99.90;;;;;;5005802;28;20047;-62
2023/04/18 05:03:23;;;;;;;12.95;8.00;;;7.80;99.90;;;;;;5006561;28;20038;-62
2023/04/18 05:05:49;;;;;;;15.63;7.65;;;7.80;99.90;;;;;;5006816;28;20037;-61
2023/04/18 05:08:15;;;;;;;10.48;6.70;;;7.80;99.90;;;;;;4984931;28;20042;-62
2023/04/18 05:10:42;;;;;;;12.05;7.60;;;7.80;99.90;;;;;;4999323;28;20113;-60
2023/04/18 05:13:07;;;;;;;12.57;8.02;;;7.80;99.90;;;;;;4986753;28;20421;-61
2023/04/18 05:15:33;;;;;;;11.05;7.97;;;7.80;99.90;;;;;;4987696;28;20049;-62
2023/04/18 05:17:59;;;;;;;11.15;7.75;;;7.80;99.90;;;;;;5012688;28;20041;-61
2023/04/18 05:20:25;;;;;;;13.02;8.18;;;7.80;99.90;;;;;;4984684;28;20132;-62
2023/04/18 05:22:53;;;;;;;12.93;8.13;;;7.80;99.90;;;;;;5006124;28;20622;-60
2023/04/18 05:25:19;;;;;;;10.15;7.90;;;7.90;99.90;;;;;;5002991;28;20034;-62
2023/04/18 05:27:45;;;;;;;11.82;7.53;;;7.90;99.90;;;;;;5005977;28;20657;-62
2023/04/18 05:30:11;;;;;;;10.88;7.78;;;7.90;99.90;;;;;;4989217;28;20061;-62
2023/04/18 05:32:40;;;;;;;13.07;7.78;;;7.90;99.90;;;;;;5002661;28;20130;-62
2023/04/18 05:35:06;;;;;;;12.00;7.07;;;7.90;99.90;;;;;;4999362;28;20046;-62
2023/04/18 05:37:32;;;;;;;14.75;8.75;;;8.00;99.90;;;;;;4987582;28;20697;-62
2023/04/18 05:39:58;;;;;;;16.85;8.65;;;8.00;99.90;;;;;;4997480;28;20044;-61
2023/04/18 05:42:24;;;;;;;12.60;8.50;;;8.00;99.90;;;;;;5000260;28;20046;-61
2023/04/18 05:44:50;;;;;;;11.68;7.80;;;8.00;99.90;;;;;;5020547;28;20060;-61
2023/04/18 05:47:18;;;;;;;11.00;8.10;;;8.00;99.90;;;;;;5006614;28;20042;-61
2023/04/18 05:49:44;;;;;;;13.20;9.10;;;8.00;99.90;;;;;;5007413;28;20389;-61
2023/04/18 05:52:10;;;;;;;11.57;8.50;;;8.00;99.90;;;;;;5006542;28;20037;-62
2023/04/18 05:54:36;;;;;;;14.25;8.60;;;8.10;99.90;;;;;;4975142;28;20389;-62
2023/04/18 05:57:04;;;;;;;13.98;8.73;;;8.10;99.90;;;;;;5007194;28;20100;-61
2023/04/18 05:59:30;;;;;;;13.02;8.10;;;8.10;99.90;;;;;;4990848;28;20077;-61
2023/04/18 06:01:56;;;;;;;12.27;8.93;;;8.10;99.90;;;;;;5007015;28;20073;-61
2023/04/18 06:04:24;;;;;;;11.77;8.43;;;8.10;99.90;;;;;;5004826;28;20057;-62
2023/04/18 06:06:50;;;;;;;12.40;8.48;;;8.20;99.90;;;;;;5008023;28;20042;-62
2023/04/18 06:09:16;;;;;;;14.23;8.30;;;8.20;99.90;;;;;;4990073;28;20557;-62
2023/04/18 06:11:45;;;;;;;10.55;7.95;;;8.20;99.90;;;;;;5005805;28;20629;-62
2023/04/18 06:14:13;;;;;;;13.68;8.38;;;8.30;99.90;;;;;;5002672;28;20045;-62
2023/04/18 06:16:39;;;;;;;11.32;8.65;;;8.30;99.90;;;;;;5003459;28;20077;-62
2023/04/18 06:19:05;;;;;;;16.40;9.90;;;8.30;99.90;;;;;;4996520;28;20034;-62
2023/04/18 06:21:31;;;;;;;11.25;8.63;;;8.30;99.90;;;;;;5007813;28;20428;-62
2023/04/18 06:23:56;;;;;;;13.10;8.43;;;8.40;99.90;;;;;;5002573;28;20095;-62
2023/04/18 06:26:22;;;;;;;13.88;9.43;;;8.40;99.90;;;;;;5005982;28;20394;-61
2023/04/18 06:28:48;;;;;;;14.18;8.38;;;8.50;99.90;;;;;;5003067;28;20048;-60
2023/04/18 06:31:13;;;;;;;13.00;8.70;;;8.60;99.90;;;;;;4992888;28;20136;-62
2023/04/18 06:33:42;;;;;;;17.55;9.98;;;8.60;99.90;;;;;;4993534;28;20049;-62
2023/04/18 06:36:08;;;;;;;13.85;8.75;;;8.80;99.90;;;;;;5007149;28;20034;-59
2023/04/18 06:38:34;;;;;;;14.35;9.00;;;8.80;99.90;;;;;;5020505;28;20038;-62
2023/04/18 06:41:00;;;;;;;17.20;9.45;;;8.80;99.90;;;;;;5003045;28;20099;-62
2023/04/18 06:43:25;;;;;;;11.95;8.10;;;8.90;99.90;;;;;;5000153;28;20130;-61
2023/04/18 06:45:55;;;;;;;12.73;8.93;;;9.00;99.90;;;;;;5004224;28;20049;-60
2023/04/18 06:48:21;;;;;;;13.05;8.40;;;9.10;99.90;;;;;;5000283;28;20131;-62
2023/04/18 06:50:47;;;;;;;11.82;8.15;;;9.10;99.90;;;;;;5000567;28;20089;-62
2023/04/18 06:53:13;;;;;;;11.80;8.20;;;9.10;99.90;;;;;;5002276;28;20081;-62
2023/04/18 06:55:42;;;;;;;11.85;8.13;;;9.20;99.90;;;;;;5003126;28;20042;-62
2023/04/18 06:58:08;;;;;;;14.57;7.93;;;9.20;99.90;;;;;;5003815;28;20044;-60
2023/04/18 07:00:34;;;;;;;13.75;7.72;;;9.20;99.90;;;;;;5003200;28;20080;-61
2023/04/18 07:03:03;;;;;;;12.85;7.70;;;9.20;99.90;;;;;;5008170;28;20485;-62
2023/04/18 07:05:29;;;;;;;11.10;7.47;;;9.30;99.90;;;;;;5006769;28;20107;-62
2023/04/18 07:07:54;;;;;;;14.65;8.30;;;9.30;99.90;;;;;;5005468;28;20125;-61
2023/04/18 07:10:20;;;;;;;13.25;7.82;;;9.40;99.90;;;;;;5007029;28;20394;-59
2023/04/18 07:12:46;;;;;;;12.63;8.10;;;9.50;99.90;;;;;;5004413;28;20046;-61
2023/04/18 07:15:15;;;;;;;13.13;8.07;;;9.50;99.90;;;;;;5005544;28;20505;-61
2023/04/18 07:17:40;;;;;;;13.73;7.75;;;9.60;99.90;;;;;;5005461;28;20189;-60
2023/04/18 07:20:07;;;;;;;12.82;7.88;;;9.50;99.90;;;;;;5007282;28;20038;-61
2023/04/18 07:22:32;;;;;;;15.98;8.38;;;9.60;99.90;;;;;;5003681;28;20394;-60
2023/04/18 07:24:58;;;;;;;11.25;7.85;;;9.70;99.90;;;;;;5002073;28;20560;-61
2023/04/18 07:27:24;;;;;;;10.90;7.75;;;9.80;99.90;;;;;;5004691;28;20049;-61
2023/04/18 07:29:50;;;;;;;16.15;8.25;;;9.80;99.90;;;;;;5005351;28;20075;-61
2023/04/18 07:32:16;;;;;;;13.48;7.78;;;9.80;99.90;;;;;;4989384;28;20642;-61
2023/04/18 07:34:42;;;;;;;10.65;8.23;;;9.80;99.90;;;;;;5004177;28;20068;-60
2023/04/18 07:37:08;;;;;;;12.80;8.20;;;9.90;99.90;;;;;;5006801;28;20042;-60
2023/04/18 07:39:35;;;;;;;11.25;8.05;;;10.00;99.90;;;;;;5007328;28;20041;-60
2023/04/18 07:42:02;;;;;;;14.18;7.80;;;10.10;99.90;;;;;;5006815;28;20052;-63
2023/04/18 07:44:27;;;;;;;11.85;8.27;;;10.20;99.90;;;;;;4992414;28;20045;-61
2023/04/18 07:46:53;;;;;;;14.88;9.38;;;10.20;99.90;;;;;;5008060;28;20050;-61
2023/04/18 07:49:19;;;;;;;15.23;8.02;;;10.30;99.90;;;;;;5009313;28;20382;-61
2023/04/18 07:51:48;;;;;;;13.80;9.38;;;10.30;99.90;;;;;;5008280;28;20124;-61
2023/04/18 07:54:13;;;;;;;12.13;8.77;;;10.30;99.90;;;;;;5011979;28;20034;-61
2023/04/18 07:56:39;;;;;;;13.07;8.43;;;10.30;99.90;;;;;;5009149;28;20409;-64
2023/04/18 07:59:05;;;;;;;12.23;8.75;;;10.40;99.90;;;;;;5002921;28;20041;-61
2023/04/18 08:01:31;;;;;;;19.92;8.43;;;10.50;99.90;;;;;;5008615;28;20042;-60
2023/04/18 08:04:00;;;;;;;13.80;8.85;;;10.60;99.90;;;;;;5005763;28;20072;-62
2023/04/18 08:06:26;;;;;;;13.15;8.35;;;10.70;99.90;;;;;;5007298;28;20057;-62
2023/04/18 08:08:52;;;;;;;13.55;7.75;;;10.80;99.90;;;;;;5009927;28;20034;-62
2023/04/18 08:11:18;;;;;;;15.35;8.57;;;10.80;99.90;;;;;;4991519;28;20041;-63
2023/04/18 08:13:43;;;;;;;14.90;7.80;;;10.80;99.90;;;;;;5007132;28;20030;-63
2023/04/18 08:16:09;;;;;;;12.40;7.93;;;10.80;99.90;;;;;;5005903;28;20046;-62
2023/04/18 08:18:35;;;;;;;16.02;8.90;;;10.90;99.90;;;;;;5009094;28;20048;-61
2023/04/18 08:21:01;;;;;;;11.85;8.00;;;11.00;99.90;;;;;;5000041;28;20095;-61
2023/04/18 08:23:26;;;;;;;13.35;9.15;;;11.00;99.90;;;;;;5009640;28;20506;-62
2023/04/18 08:25:52;;;;;;;14.38;8.25;;;11.20;99.90;;;;;;5006046;28;20038;-64
2023/04/18 08:28:18;;;;;;;13.52;8.85;;;11.30;99.90;;;;;;4999147;28;20147;-63
2023/04/18 08:30:47;;;;;;;12.40;7.97;;;11.40;99.90;;;;;;5007665;28;20038;-61
2023/04/18 08:33:14;;;;;;;10.88;7.50;;;11.50;99.90;;;;;;5005178;28;20050;-61
2023/04/18 08:35:40;;;;;;;11.32;7.90;;;11.50;99.90;;;;;;5003516;28;20038;-62
2023/04/18 08:38:05;;;;;;;12.52;8.40;;;11.60;99.70;;;;;;5003112;28;20638;-61
2023/04/18 08:40:31;;;;;;;10.20;7.32;;;11.70;99.90;;;;;;5004759;28;20497;-64
2023/04/18 08:43:00;;;;;;;12.75;7.90;;;11.80;99.30;;;;;;5004832;28;20053;-62
2023/04/18 08:45:27;;;;;;;15.93;8.10;;;11.70;99.40;;;;;;5008136;28;20053;-63
2023/04/18 08:47:54;;;;;;;11.45;8.02;;;11.70;99.50;;;;;;4993058;28;20558;-60
2023/04/18 08:50:20;;;;;;;11.38;7.75;;;11.80;99.20;;;;;;5006128;28;20074;-61
2023/04/18 08:52:52;;;;;;;12.02;7.53;;;11.80;99.40;;;;;;5001982;28;20499;-62
2023/04/18 08:55:18;;;;;;;9.10;6.80;;;11.90;99.80;;;;;;5009698;28;20053;-63
2023/04/18 08:57:46;;;;;;;10.10;6.95;;;12.10;99.60;;;;;;4993865;28;20116;-63
2023/04/18 09:00:16;;;;;;;11.02;7.45;;;12.10;99.10;;;;;;5008150;28;20073;-62
2023/04/18 09:02:42;;;;;;;9.85;7.10;;;12.20;99.50;;;;;;5007088;28;20137;-59
2023/04/18 09:05:11;;;;;;;11.93;8.20;;;12.30;99.60;;;;;;5007295;28;20552;-62
2023/04/18 09:07:36;;;;;;;12.00;7.97;;;12.40;99.40;;;;;;5005136;28;20095;-63
2023/04/18 09:10:03;;;;;;;14.25;8.13;;;12.40;99.10;;;;;;5001356;28;20058;-62
2023/04/18 09:12:31;;;;;;;13.05;8.15;;;12.40;99.10;;;;;;5003525;28;20548;-62
2023/04/18 09:15:19;;;;;;;11.48;8.32;;;12.40;98.90;;;;;;5002880;28;20469;-61
2023/04/18 09:17:51;;;;;;;12.73;7.15;;;12.60;98.80;;;;;;4988508;28;20042;-64
2023/04/18 09:20:40;;;;;;;9.90;7.45;;;12.60;98.90;;;;;;5001459;28;20184;-60
2023/04/18 09:23:15;;;;;;;12.38;8.23;;;12.70;98.40;;;;;;4999499;28;20382;-61
2023/04/18 09:25:41;;;;;;;11.37;7.50;;;12.60;98.50;;;;;;5010933;28;20358;-64
2023/04/18 09:28:28;;;;;;;11.20;7.65;;;12.70;98.90;;;;;;4986644;28;20033;-60
2023/04/18 09:31:15;;;;;;;13.02;7.70;;;12.90;98.80;;;;;;4997134;28;20038;-62
2023/04/18 09:33:51;;;;;;;10.25;7.38;;;12.90;98.30;;;;;;4996176;28;20049;-61
2023/04/18 09:36:20;;;;;;;14.32;8.18;;;12.90;97.30;;;;;;5003147;28;20091;-61
2023/04/18 09:38:46;;;;;;;12.30;7.63;;;12.80;97.30;;;;;;5000146;28;20022;-61
2023/04/18 09:41:14;;;;;;;13.18;7.00;;;12.90;97.10;;;;;;5005094;28;20441;-61
2023/04/18 09:43:40;;;;;;;12.45;7.63;;;13.00;97.60;;;;;;5010902;28;20041;-61
2023/04/18 09:46:07;;;;;;;12.98;7.57;;;13.10;97.20;;;;;;4995049;28;20046;-60
2023/04/18 09:48:39;;;;;;;10.50;7.15;;;13.10;96.90;;;;;;5006328;28;20049;-58
2023/04/18 09:51:07;;;;;;;13.68;7.55;;;13.20;97.20;;;;;;5000793;28;20056;-59
2023/04/18 09:53:43;;;;;;;10.45;6.72;;;13.30;97.50;;;;;;5003104;28;20124;-60
2023/04/18 09:56:13;;;;;;;11.27;6.80;;;13.40;97.30;;;;;;4999072;28;20026;-59
2023/04/18 09:58:43;;;;;;;12.05;6.57;;;13.50;97.20;;;;;;5002986;28;20045;-60
2023/04/18 10:01:11;;;;;;;7.22;5.90;;;13.60;96.40;;;;;;5003912;28;20053;-60
2023/04/18 10:03:46;;;;;;;29.38;11.07;;;13.60;96.30;;;;;;4999134;28;20054;-60
2023/04/18 10:06:15;;;;;;;41.50;15.05;;;13.70;97.10;;;;;;5003377;28;20682;-62
2023/04/18 10:08:46;;;;;;;12.35;7.13;;;13.80;96.20;;;;;;5003110;28;20716;-61
2023/04/18 10:11:12;;;;;;;12.02;6.53;;;13.80;96.90;;;;;;5000999;28;20049;-61
2023/04/18 10:13:41;;;;;;;7.13;5.15;;;13.90;96.50;;;;;;5019522;28;20501;-60
2023/04/18 10:16:08;;;;;;;7.80;5.97;;;13.80;96.10;;;;;;5006804;28;20496;-60
2023/04/18 10:18:35;;;;;;;12.10;6.75;;;13.80;95.50;;;;;;4999534;28;20624;-62
2023/04/18 10:21:02;;;;;;;7.28;5.32;;;13.80;96.00;;;;;;5004558;28;20704;-59
2023/04/18 10:23:31;;;;;;;8.60;5.43;;;13.80;95.70;;;;;;5001296;28;20583;-61
2023/04/18 10:25:57;;;;;;;7.57;6.00;;;13.70;95.80;;;;;;5006864;28;20034;-60
2023/04/18 10:28:25;;;;;;;11.45;5.53;;;13.80;95.50;;;;;;4984606;28;20058;-60
2023/04/18 10:30:53;;;;;;;8.07;5.20;;;13.90;96.10;;;;;;4999291;28;20045;-63
2023/04/18 10:33:21;;;;;;;7.20;5.30;;;13.90;96.30;;;;;;4995499;28;20060;-60
2023/04/18 10:36:09;;;;;;;7.80;5.32;;;14.00;95.50;;;;;;5004170;28;20044;-61
2023/04/18 10:38:43;;;;;;;7.68;5.68;;;13.90;95.80;;;;;;4989536;28;20065;-61
2023/04/18 10:41:27;;;;;;;8.60;5.45;;;14.00;96.10;;;;;;5006536;28;20121;-60
2023/04/18 10:44:23;;;;;;;7.38;5.60;;;14.10;95.70;;;;;;4999937;28;20053;-61
2023/04/18 10:46:51;;;;;;;9.18;6.30;;;14.10;95.80;;;;;;5005425;28;20038;-60
2023/04/18 10:49:18;;;;;;;9.32;5.32;;;14.20;96.30;;;;;;5006801;28;20041;-60
2023/04/18 10:51:46;;;;;;;7.00;5.32;;;14.30;96.20;;;;;;5006483;28;20042;-61
2023/04/18 10:54:42;;;;;;;6.97;4.70;;;14.30;95.80;;;;;;5005883;28;20057;-61
2023/04/18 10:57:09;;;;;;;8.05;5.20;;;14.20;95.70;;;;;;5005456;28;20656;-60
2023/04/18 10:59:40;;;;;;;8.70;5.78;;;14.40;96.10;;;;;;5005939;28;20038;-60
2023/04/18 11:02:23;;;;;;;8.07;5.40;;;14.50;95.70;;;;;;4986565;28;20081;-59
2023/04/18 11:04:50;;;;;;;6.55;4.70;;;14.40;95.80;;;;;;5010164;28;20103;-60
2023/04/18 11:07:33;;;;;;;7.47;5.80;;;14.40;96.20;;;;;;5005370;28;20052;-60
2023/04/18 11:10:00;;;;;;;7.40;5.75;;;14.50;96.00;;;;;;5007859;28;20053;-59
2023/04/18 11:12:30;;;;;;;5.85;4.85;;;14.50;95.70;;;;;;4989841;28;20044;-60
2023/04/18 11:14:57;;;;;;;6.95;4.70;;;14.50;96.20;;;;;;5004958;28;20045;-61
2023/04/18 11:17:34;;;;;;;5.18;4.57;;;14.70;96.30;;;;;;5004326;28;20041;-59
2023/04/18 11:20:12;;;;;;;7.22;5.25;;;14.80;95.70;;;;;;5000925;28;20735;-60
2023/04/18 11:22:44;;;;;;;6.70;5.00;;;14.80;95.90;;;;;;5004567;28;20042;-62
2023/04/18 11:25:10;;;;;;;6.05;4.90;;;15.10;96.50;;;;;;4989537;28;20370;-61
2023/04/18 11:27:36;;;;;;;8.25;5.13;;;15.30;95.90;;;;;;4986495;28;20038;-61
2023/04/18 11:30:06;;;;;;;7.50;5.25;;;15.20;95.40;;;;;;5003379;28;20050;-60
2023/04/18 11:32:33;;;;;;;7.88;5.70;;;15.00;95.10;;;;;;4984839;28;20465;-62
2023/04/18 11:34:58;;;;;;;7.47;6.30;;;15.00;95.70;;;;;;5004088;28;20060;-62
2023/04/18 11:37:24;;;;;;;7.97;6.07;;;15.00;95.50;;;;;;5002482;28;20045;-62
2023/04/18 11:39:52;;;;;;;12.05;6.68;;;15.10;96.00;;;;;;5006380;28;20088;-61
2023/04/18 11:42:19;;;;;;;9.57;5.93;;;15.00;96.30;;;;;;4995526;28;20104;-60
2023/04/18 11:44:46;;;;;;;8.80;6.20;;;15.20;95.80;;;;;;5004661;28;20069;-60
2023/04/18 11:47:32;;;;;;;9.90;6.72;;;15.50;96.40;;;;;;5004396;28;20073;-60
2023/04/18 11:50:06;;;;;;;14.30;6.55;;;15.60;95.90;;;;;;4999038;28;20125;-58
2023/04/18 11:52:33;;;;;;;;;;;15.70;96.00;;;;;;5001483;28;20061;-60
2023/04/18 11:55:12;;;;;;;7.00;5.88;;;15.80;96.00;;;;;;5005217;28;19929;-61
2023/04/18 11:57:38;;;;;;;9.38;5.53;;;15.90;95.20;;;;;;5003653;28;20041;-62
2023/04/18 12:00:08;;;;;;;10.35;5.47;;;15.80;94.80;;;;;;5007974;28;20038;-60
2023/04/18 12:02:43;;;;;;;7.20;5.82;;;15.60;95.30;;;;;;5001960;28;20120;-61
2023/04/18 12:05:13;;;;;;;8.98;5.88;;;15.50;95.10;;;;;;5009661;28;20504;-60
2023/04/18 12:07:44;;;;;;;7.53;5.07;;;15.30;95.50;;;;;;5002823;28;20115;-60
2023/04/18 12:10:19;;;;;;;7.10;5.85;;;15.20;96.00;;;;;;5003034;28;20069;-63
2023/04/18 12:13:06;;;;;;;7.10;5.25;;;15.30;96.00;;;;;;5003981;28;20077;-60
2023/04/18 12:15:32;;;;;;;6.75;5.32;;;15.30;95.70;;;;;;5002023;28;20042;-57
2023/04/18 12:18:00;;;;;;;7.28;5.45;;;15.50;96.10;;;;;;4998211;28;20145;-62
2023/04/18 12:20:52;;;;;;;7.47;4.90;;;15.60;95.50;;;;;;5002340;28;20728;-59
2023/04/18 12:23:38;;;;;;;7.30;4.47;;;15.40;94.70;;;;;;4992873;28;20046;-60
2023/04/18 12:26:06;;;;;;;6.65;4.43;;;15.30;95.20;;;;;;4996236;28;20042;-59
2023/04/18 12:28:32;;;;;;;8.20;4.68;;;15.30;95.10;;;;;;5007045;28;20045;-59
2023/04/18 12:30:58;;;;;;;6.75;4.60;;;15.40;95.40;;;;;;5008443;28;20054;-59
2023/04/18 12:33:25;;;;;;;5.70;4.55;;;15.70;95.50;;;;;;4985533;28;20038;-58
2023/04/18 12:35:54;;;;;;;6.22;4.68;;;15.90;95.50;;;;;;4987923;28;20736;-59
2023/04/18 12:38:25;;;;;;;9.52;4.60;;;16.20;95.20;;;;;;5005376;28;20137;-59
2023/04/18 12:40:51;;;;;;;6.22;4.50;;;16.20;96.20;;;;;;5006058;28;20040;-60
2023/04/18 12:43:17;;;;;;;5.18;3.85;;;16.50;96.00;;;;;;5004791;28;20037;-59
2023/04/18 12:45:45;;;;;;;4.93;3.92;;;16.70;95.00;;;;;;5006540;28;20104;-60
2023/04/18 12:48:11;;;;;;;7.30;4.40;;;16.40;94.20;;;;;;5005900;28;20065;-59